sensor_id;sensor_type;location;lat;lon;timestamp;temperature;humidity
16174;DHT22;14031;50.158;8.626;2022-12-10T00:01:22;3.70;99.90
16174;DHT22;14031;50.158;8.626;2022-12-10T00:03:49;3.70;99.90
16174;DHT22;14031;50.158;8.626;2022-12-10T00:06:19;3.60;99.90
16174;DHT22;14031;50.158;8.626;2022-12-10T00:08:46;3.70;99.90
16174;DHT22;14031;50.158;8.626;2022-12-10T00:11:15;3.70;99.90
16174;DHT22;14031;50.158;8.626;2022-12-10T00:13:43;3.60;99.90
16174;DHT22;14031;50.158;8.626;2022-12-10T00:16:13;3.60;99.90
16174;DHT22;14031;50.158;8.626;2022-12-10T00:18:42;3.60;99.90
16174;DHT22;14031;50.158;8.626;2022-12-10T00:21:10;3.60;99.90
16174;DHT22;14031;50.158;8.626;2022-12-10T00:23:38;3.60;99.90
16174;DHT22;14031;50.158;8.626;2022-12-10T00:26:06;3.60;99.90
16174;DHT22;14031;50.158;8.626;2022-12-10T00:28:33;3.50;99.90
16174;DHT22;14031;50.158;8.626;2022-12-10T00:31:04;3.50;99.90
16174;DHT22;14031;50.158;8.626;2022-12-10T00:33:31;3.40;99.90
16174;DHT22;14031;50.158;8.626;2022-12-10T00:36:03;3.40;99.90
16174;DHT22;14031;50.158;8.626;2022-12-10T00:38:30;3.40;99.90
16174;DHT22;14031;50.158;8.626;2022-12-10T00:40:57;3.50;99.90
16174;DHT22;14031;50.158;8.626;2022-12-10T00:43:24;3.40;99.90
16174;DHT22;14031;50.158;8.626;2022-12-10T00:45:50;3.30;99.90
16174;DHT22;14031;50.158;8.626;2022-12-10T00:48:17;3.30;99.90
16174;DHT22;14031;50.158;8.626;2022-12-10T00:50:44;3.30;99.90
16174;DHT22;14031;50.158;8.626;2022-12-10T00:53:12;3.30;99.90
16174;DHT22;14031;50.158;8.626;2022-12-10T00:55:39;3.30;99.90
16174;DHT22;14031;50.158;8.626;2022-12-10T00:58:05;3.40;99.90
16174;DHT22;14031;50.158;8.626;2022-12-10T01:00:32;3.40;99.90
16174;DHT22;14031;50.158;8.626;2022-12-10T01:02:59;3.40;99.90
16174;DHT22;14031;50.158;8.626;2022-12-10T01:05:26;3.50;99.90
16174;DHT22;14031;50.158;8.626;2022-12-10T01:07:53;3.50;99.90
16174;DHT22;14031;50.158;8.626;2022-12-10T01:10:21;3.50;99.90
16174;DHT22;14031;50.158;8.626;2022-12-10T01:12:48;3.50;99.90
16174;DHT22;14031;50.158;8.626;2022-12-10T01:15:14;3.50;99.90
16174;DHT22;14031;50.158;8.626;2022-12-10T01:17:41;3.40;99.90
16174;DHT22;14031;50.158;8.626;2022-12-10T01:20:09;3.40;99.90
16174;DHT22;14031;50.158;8.626;2022-12-10T01:22:37;3.40;99.90
16174;DHT22;14031;50.158;8.626;2022-12-10T01:25:05;3.40;99.90
16174;DHT22;14031;50.158;8.626;2022-12-10T01:27:33;3.40;99.90
16174;DHT22;14031;50.158;8.626;2022-12-10T01:30:00;3.40;99.90
16174;DHT22;14031;50.158;8.626;2022-12-10T01:32:27;3.40;99.90
16174;DHT22;14031;50.158;8.626;2022-12-10T01:34:54;3.30;99.90
16174;DHT22;14031;50.158;8.626;2022-12-10T01:37:21;3.30;99.90
16174;DHT22;14031;50.158;8.626;2022-12-10T01:39:47;3.20;99.90
16174;DHT22;14031;50.158;8.626;2022-12-10T01:42:14;3.20;99.90
16174;DHT22;14031;50.158;8.626;2022-12-10T01:45:08;3.20;99.90
16174;DHT22;14031;50.158;8.626;2022-12-10T01:47:36;3.10;99.90
16174;DHT22;14031;50.158;8.626;2022-12-10T01:50:05;3.10;99.90
16174;DHT22;14031;50.158;8.626;2022-12-10T01:52:32;3.10;99.90
16174;DHT22;14031;50.158;8.626;2022-12-10T01:54:59;3.10;99.90
16174;DHT22;14031;50.158;8.626;2022-12-10T01:57:27;3.10;99.90
16174;DHT22;14031;50.158;8.626;2022-12-10T01:59:57;3.10;99.90
16174;DHT22;14031;50.158;8.626;2022-12-10T02:02:40;3.00;99.90
16174;DHT22;14031;50.158;8.626;2022-12-10T02:05:17;3.00;99.90
16174;DHT22;14031;50.158;8.626;2022-12-10T02:07:55;2.90;99.90
16174;DHT22;14031;50.158;8.626;2022-12-10T02:10:33;2.90;99.90
16174;DHT22;14031;50.158;8.626;2022-12-10T02:13:06;2.90;99.90
16174;DHT22;14031;50.158;8.626;2022-12-10T02:15:40;2.80;99.90
16174;DHT22;14031;50.158;8.626;2022-12-10T02:18:12;2.80;99.90
16174;DHT22;14031;50.158;8.626;2022-12-10T02:20:41;2.90;99.90
16174;DHT22;14031;50.158;8.626;2022-12-10T02:23:12;2.90;99.90
16174;DHT22;14031;50.158;8.626;2022-12-10T02:25:42;2.90;99.90
16174;DHT22;14031;50.158;8.626;2022-12-10T02:28:19;2.90;99.90
16174;DHT22;14031;50.158;8.626;2022-12-10T02:30:53;2.80;99.90
16174;DHT22;14031;50.158;8.626;2022-12-10T02:33:22;2.80;99.90
16174;DHT22;14031;50.158;8.626;2022-12-10T02:35:51;2.80;99.90
16174;DHT22;14031;50.158;8.626;2022-12-10T02:38:23;2.80;99.90
16174;DHT22;14031;50.158;8.626;2022-12-10T02:40:56;2.80;99.90
16174;DHT22;14031;50.158;8.626;2022-12-10T02:43:24;2.70;99.90
16174;DHT22;14031;50.158;8.626;2022-12-10T02:45:54;2.70;99.90
16174;DHT22;14031;50.158;8.626;2022-12-10T02:48:22;2.70;99.90
16174;DHT22;14031;50.158;8.626;2022-12-10T02:50:49;2.70;99.90
16174;DHT22;14031;50.158;8.626;2022-12-10T02:53:16;2.60;99.90
16174;DHT22;14031;50.158;8.626;2022-12-10T02:55:56;2.60;99.90
16174;DHT22;14031;50.158;8.626;2022-12-10T02:58:30;2.60;99.90
16174;DHT22;14031;50.158;8.626;2022-12-10T03:01:07;2.50;99.90
16174;DHT22;14031;50.158;8.626;2022-12-10T03:03:42;2.50;99.90
16174;DHT22;14031;50.158;8.626;2022-12-10T03:06:18;2.60;99.90
16174;DHT22;14031;50.158;8.626;2022-12-10T03:08:50;2.50;99.90
16174;DHT22;14031;50.158;8.626;2022-12-10T03:11:20;2.60;99.90
16174;DHT22;14031;50.158;8.626;2022-12-10T03:13:53;2.60;99.90
16174;DHT22;14031;50.158;8.626;2022-12-10T03:16:23;2.60;99.90
16174;DHT22;14031;50.158;8.626;2022-12-10T03:18:56;2.50;99.90
16174;DHT22;14031;50.158;8.626;2022-12-10T03:21:25;2.60;99.90
16174;DHT22;14031;50.158;8.626;2022-12-10T03:23:55;2.50;99.90
16174;DHT22;14031;50.158;8.626;2022-12-10T03:26:23;2.50;99.90
16174;DHT22;14031;50.158;8.626;2022-12-10T03:28:52;2.50;99.90
16174;DHT22;14031;50.158;8.626;2022-12-10T03:31:26;2.50;99.90
16174;DHT22;14031;50.158;8.626;2022-12-10T03:33:55;2.50;99.90
16174;DHT22;14031;50.158;8.626;2022-12-10T03:36:22;2.50;99.90
16174;DHT22;14031;50.158;8.626;2022-12-10T03:38:50;2.50;99.90
16174;DHT22;14031;50.158;8.626;2022-12-10T03:41:17;2.50;99.90
16174;DHT22;14031;50.158;8.626;2022-12-10T03:43:52;2.50;99.90
16174;DHT22;14031;50.158;8.626;2022-12-10T03:46:27;2.50;99.90
16174;DHT22;14031;50.158;8.626;2022-12-10T03:48:55;2.40;99.90
16174;DHT22;14031;50.158;8.626;2022-12-10T03:51:22;2.50;99.90
16174;DHT22;14031;50.158;8.626;2022-12-10T03:53:49;2.50;99.90
16174;DHT22;14031;50.158;8.626;2022-12-10T03:56:16;2.50;99.90
16174;DHT22;14031;50.158;8.626;2022-12-10T03:58:43;2.50;99.90
16174;DHT22;14031;50.158;8.626;2022-12-10T04:01:11;2.50;99.90
16174;DHT22;14031;50.158;8.626;2022-12-10T04:03:40;2.50;99.90
16174;DHT22;14031;50.158;8.626;2022-12-10T04:06:11;2.50;99.90
16174;DHT22;14031;50.158;8.626;2022-12-10T04:08:38;2.50;99.90
16174;DHT22;14031;50.158;8.626;2022-12-10T04:11:06;2.50;99.90
16174;DHT22;14031;50.158;8.626;2022-12-10T04:13:33;2.50;99.90
16174;DHT22;14031;50.158;8.626;2022-12-10T04:16:18;2.70;99.90
16174;DHT22;14031;50.158;8.626;2022-12-10T04:18:56;2.50;99.90
16174;DHT22;14031;50.158;8.626;2022-12-10T04:21:23;2.50;99.90
16174;DHT22;14031;50.158;8.626;2022-12-10T04:24:08;2.50;99.90
16174;DHT22;14031;50.158;8.626;2022-12-10T04:26:53;2.50;99.90
16174;DHT22;14031;50.158;8.626;2022-12-10T04:29:21;2.60;99.90
16174;DHT22;14031;50.158;8.626;2022-12-10T04:31:54;2.50;99.90
16174;DHT22;14031;50.158;8.626;2022-12-10T04:34:24;2.50;99.90
16174;DHT22;14031;50.158;8.626;2022-12-10T04:36:51;2.50;99.90
16174;DHT22;14031;50.158;8.626;2022-12-10T04:39:18;2.50;99.90
16174;DHT22;14031;50.158;8.626;2022-12-10T04:41:47;2.50;99.90
16174;DHT22;14031;50.158;8.626;2022-12-10T04:44:14;2.50;99.90
16174;DHT22;14031;50.158;8.626;2022-12-10T04:46:41;2.40;99.90
16174;DHT22;14031;50.158;8.626;2022-12-10T04:49:08;2.50;99.90
16174;DHT22;14031;50.158;8.626;2022-12-10T04:51:36;2.50;99.90
16174;DHT22;14031;50.158;8.626;2022-12-10T04:54:03;2.50;99.90
16174;DHT22;14031;50.158;8.626;2022-12-10T04:56:31;2.40;99.90
16174;DHT22;14031;50.158;8.626;2022-12-10T04:58:58;2.40;99.90
16174;DHT22;14031;50.158;8.626;2022-12-10T05:01:26;2.40;99.90
16174;DHT22;14031;50.158;8.626;2022-12-10T05:03:53;2.40;99.90
16174;DHT22;14031;50.158;8.626;2022-12-10T05:06:20;2.40;99.90
16174;DHT22;14031;50.158;8.626;2022-12-10T05:08:59;2.30;99.90
16174;DHT22;14031;50.158;8.626;2022-12-10T05:11:28;2.40;99.90
16174;DHT22;14031;50.158;8.626;2022-12-10T05:13:55;2.40;99.90
16174;DHT22;14031;50.158;8.626;2022-12-10T05:16:24;2.30;99.90
16174;DHT22;14031;50.158;8.626;2022-12-10T05:18:52;2.30;99.90
16174;DHT22;14031;50.158;8.626;2022-12-10T05:21:20;2.30;99.90
16174;DHT22;14031;50.158;8.626;2022-12-10T05:23:49;2.30;99.90
16174;DHT22;14031;50.158;8.626;2022-12-10T05:26:18;2.30;99.90
16174;DHT22;14031;50.158;8.626;2022-12-10T05:28:46;2.20;99.90
16174;DHT22;14031;50.158;8.626;2022-12-10T05:31:15;2.20;99.90
16174;DHT22;14031;50.158;8.626;2022-12-10T05:33:42;2.20;99.90
16174;DHT22;14031;50.158;8.626;2022-12-10T05:36:10;2.20;99.90
16174;DHT22;14031;50.158;8.626;2022-12-10T05:38:38;2.10;99.90
16174;DHT22;14031;50.158;8.626;2022-12-10T05:41:06;2.10;99.90
16174;DHT22;14031;50.158;8.626;2022-12-10T05:43:37;2.10;99.90
16174;DHT22;14031;50.158;8.626;2022-12-10T05:46:05;2.10;99.90
16174;DHT22;14031;50.158;8.626;2022-12-10T05:48:33;2.00;99.90
16174;DHT22;14031;50.158;8.626;2022-12-10T05:51:03;1.90;99.90
16174;DHT22;14031;50.158;8.626;2022-12-10T05:53:30;2.00;99.90
16174;DHT22;14031;50.158;8.626;2022-12-10T05:55:59;2.00;99.90
16174;DHT22;14031;50.158;8.626;2022-12-10T05:58:27;2.00;99.90
16174;DHT22;14031;50.158;8.626;2022-12-10T06:00:55;2.00;99.90
16174;DHT22;14031;50.158;8.626;2022-12-10T06:03:26;2.10;99.90
16174;DHT22;14031;50.158;8.626;2022-12-10T06:05:53;2.00;99.90
16174;DHT22;14031;50.158;8.626;2022-12-10T06:08:20;2.10;99.90
16174;DHT22;14031;50.158;8.626;2022-12-10T06:10:52;2.10;99.90
16174;DHT22;14031;50.158;8.626;2022-12-10T06:13:19;2.10;99.90
16174;DHT22;14031;50.158;8.626;2022-12-10T06:15:46;2.10;99.90
16174;DHT22;14031;50.158;8.626;2022-12-10T06:18:14;2.10;99.90
16174;DHT22;14031;50.158;8.626;2022-12-10T06:20:41;2.20;99.90
16174;DHT22;14031;50.158;8.626;2022-12-10T06:23:07;2.20;99.90
16174;DHT22;14031;50.158;8.626;2022-12-10T06:25:37;2.20;99.90
16174;DHT22;14031;50.158;8.626;2022-12-10T06:28:04;2.20;99.90
16174;DHT22;14031;50.158;8.626;2022-12-10T06:30:31;2.20;99.90
16174;DHT22;14031;50.158;8.626;2022-12-10T06:32:58;2.30;99.90
16174;DHT22;14031;50.158;8.626;2022-12-10T06:35:27;2.20;99.90
16174;DHT22;14031;50.158;8.626;2022-12-10T06:37:54;2.30;99.90
16174;DHT22;14031;50.158;8.626;2022-12-10T06:40:24;2.30;99.90
16174;DHT22;14031;50.158;8.626;2022-12-10T06:42:51;2.30;99.90
16174;DHT22;14031;50.158;8.626;2022-12-10T06:45:18;2.30;99.90
16174;DHT22;14031;50.158;8.626;2022-12-10T06:47:45;2.30;99.90
16174;DHT22;14031;50.158;8.626;2022-12-10T06:50:12;2.30;99.90
16174;DHT22;14031;50.158;8.626;2022-12-10T06:52:40;2.30;99.90
16174;DHT22;14031;50.158;8.626;2022-12-10T06:55:07;2.40;99.90
16174;DHT22;14031;50.158;8.626;2022-12-10T06:57:34;2.40;99.90
16174;DHT22;14031;50.158;8.626;2022-12-10T07:00:01;2.40;99.90
16174;DHT22;14031;50.158;8.626;2022-12-10T07:02:28;2.50;99.90
16174;DHT22;14031;50.158;8.626;2022-12-10T07:04:57;2.50;99.90
16174;DHT22;14031;50.158;8.626;2022-12-10T07:07:24;2.50;99.90
16174;DHT22;14031;50.158;8.626;2022-12-10T07:09:55;2.50;99.90
16174;DHT22;14031;50.158;8.626;2022-12-10T07:12:22;2.50;99.90
16174;DHT22;14031;50.158;8.626;2022-12-10T07:14:51;2.50;99.90
16174;DHT22;14031;50.158;8.626;2022-12-10T07:17:18;2.60;99.90
16174;DHT22;14031;50.158;8.626;2022-12-10T07:19:45;2.60;99.90
16174;DHT22;14031;50.158;8.626;2022-12-10T07:22:12;2.70;99.90
16174;DHT22;14031;50.158;8.626;2022-12-10T07:24:40;2.60;99.90
16174;DHT22;14031;50.158;8.626;2022-12-10T07:27:08;2.60;99.90
16174;DHT22;14031;50.158;8.626;2022-12-10T07:29:35;2.60;99.90
16174;DHT22;14031;50.158;8.626;2022-12-10T07:32:02;2.70;99.90
16174;DHT22;14031;50.158;8.626;2022-12-10T07:34:29;2.70;99.90
16174;DHT22;14031;50.158;8.626;2022-12-10T07:36:56;2.70;99.90
16174;DHT22;14031;50.158;8.626;2022-12-10T07:39:22;2.70;99.90
16174;DHT22;14031;50.158;8.626;2022-12-10T07:41:49;2.70;99.90
16174;DHT22;14031;50.158;8.626;2022-12-10T07:44:20;2.80;99.90
16174;DHT22;14031;50.158;8.626;2022-12-10T07:46:47;2.80;99.90
16174;DHT22;14031;50.158;8.626;2022-12-10T07:49:14;2.90;99.90
16174;DHT22;14031;50.158;8.626;2022-12-10T07:51:44;2.90;99.90
16174;DHT22;14031;50.158;8.626;2022-12-10T07:54:10;2.90;99.90
16174;DHT22;14031;50.158;8.626;2022-12-10T07:56:37;2.90;99.90
16174;DHT22;14031;50.158;8.626;2022-12-10T07:59:07;2.90;99.90
16174;DHT22;14031;50.158;8.626;2022-12-10T08:01:35;3.00;99.90
16174;DHT22;14031;50.158;8.626;2022-12-10T08:04:02;3.00;99.90
16174;DHT22;14031;50.158;8.626;2022-12-10T08:06:29;3.00;99.90
16174;DHT22;14031;50.158;8.626;2022-12-10T08:08:58;3.10;99.90
16174;DHT22;14031;50.158;8.626;2022-12-10T08:11:25;3.20;99.90
16174;DHT22;14031;50.158;8.626;2022-12-10T08:13:52;3.00;99.90
16174;DHT22;14031;50.158;8.626;2022-12-10T08:16:20;3.10;99.90
16174;DHT22;14031;50.158;8.626;2022-12-10T08:18:49;3.10;99.90
16174;DHT22;14031;50.158;8.626;2022-12-10T08:21:18;3.20;99.90
16174;DHT22;14031;50.158;8.626;2022-12-10T08:23:48;3.30;99.90
16174;DHT22;14031;50.158;8.626;2022-12-10T08:26:16;3.30;99.90
16174;DHT22;14031;50.158;8.626;2022-12-10T08:28:44;3.40;99.90
16174;DHT22;14031;50.158;8.626;2022-12-10T08:31:14;3.40;99.90
16174;DHT22;14031;50.158;8.626;2022-12-10T08:33:41;3.40;99.90
16174;DHT22;14031;50.158;8.626;2022-12-10T08:36:12;3.50;99.90
16174;DHT22;14031;50.158;8.626;2022-12-10T08:38:40;3.40;99.90
16174;DHT22;14031;50.158;8.626;2022-12-10T08:41:07;3.50;99.90
16174;DHT22;14031;50.158;8.626;2022-12-10T08:43:34;3.50;99.90
16174;DHT22;14031;50.158;8.626;2022-12-10T08:46:01;3.60;99.90
16174;DHT22;14031;50.158;8.626;2022-12-10T08:48:28;3.60;99.90
16174;DHT22;14031;50.158;8.626;2022-12-10T08:50:55;3.50;99.90
16174;DHT22;14031;50.158;8.626;2022-12-10T08:53:24;3.50;99.90
16174;DHT22;14031;50.158;8.626;2022-12-10T08:55:51;3.60;99.90
16174;DHT22;14031;50.158;8.626;2022-12-10T08:58:17;3.70;99.90
16174;DHT22;14031;50.158;8.626;2022-12-10T09:00:45;3.70;99.90
16174;DHT22;14031;50.158;8.626;2022-12-10T09:03:12;3.70;99.90
16174;DHT22;14031;50.158;8.626;2022-12-10T09:05:38;3.70;99.90
16174;DHT22;14031;50.158;8.626;2022-12-10T09:08:05;3.70;99.90
16174;DHT22;14031;50.158;8.626;2022-12-10T09:10:35;3.80;99.90
16174;DHT22;14031;50.158;8.626;2022-12-10T09:13:02;3.80;99.90
16174;DHT22;14031;50.158;8.626;2022-12-10T09:15:29;3.80;99.90
16174;DHT22;14031;50.158;8.626;2022-12-10T09:17:55;3.80;99.90
16174;DHT22;14031;50.158;8.626;2022-12-10T09:20:22;3.80;99.90
16174;DHT22;14031;50.158;8.626;2022-12-10T09:22:49;3.80;99.90
16174;DHT22;14031;50.158;8.626;2022-12-10T09:25:16;3.80;99.90
16174;DHT22;14031;50.158;8.626;2022-12-10T09:27:46;3.80;99.90
16174;DHT22;14031;50.158;8.626;2022-12-10T09:30:13;3.80;99.90
16174;DHT22;14031;50.158;8.626;2022-12-10T09:32:40;3.80;99.90
16174;DHT22;14031;50.158;8.626;2022-12-10T09:35:07;3.80;99.90
16174;DHT22;14031;50.158;8.626;2022-12-10T09:37:34;3.80;99.90
16174;DHT22;14031;50.158;8.626;2022-12-10T09:40:03;3.90;99.90
16174;DHT22;14031;50.158;8.626;2022-12-10T09:42:37;3.90;99.90
16174;DHT22;14031;50.158;8.626;2022-12-10T09:45:14;3.90;99.90
16174;DHT22;14031;50.158;8.626;2022-12-10T09:47:51;4.00;99.90
16174;DHT22;14031;50.158;8.626;2022-12-10T09:50:23;3.80;99.90
16174;DHT22;14031;50.158;8.626;2022-12-10T09:52:53;3.80;99.90
16174;DHT22;14031;50.158;8.626;2022-12-10T09:55:32;3.80;99.90
16174;DHT22;14031;50.158;8.626;2022-12-10T09:58:00;3.70;99.90
16174;DHT22;14031;50.158;8.626;2022-12-10T10:00:34;3.80;99.90
16174;DHT22;14031;50.158;8.626;2022-12-10T10:03:02;3.90;99.90
16174;DHT22;14031;50.158;8.626;2022-12-10T10:05:31;4.00;99.90
16174;DHT22;14031;50.158;8.626;2022-12-10T10:08:02;4.00;99.90
16174;DHT22;14031;50.158;8.626;2022-12-10T10:10:32;4.10;99.90
16174;DHT22;14031;50.158;8.626;2022-12-10T10:13:05;4.10;99.90
16174;DHT22;14031;50.158;8.626;2022-12-10T10:15:40;4.10;99.90
16174;DHT22;14031;50.158;8.626;2022-12-10T10:18:14;4.20;99.90
16174;DHT22;14031;50.158;8.626;2022-12-10T10:20:44;4.40;99.90
16174;DHT22;14031;50.158;8.626;2022-12-10T10:23:14;4.40;99.90
16174;DHT22;14031;50.158;8.626;2022-12-10T10:25:41;4.50;99.90
16174;DHT22;14031;50.158;8.626;2022-12-10T10:28:11;4.70;99.90
16174;DHT22;14031;50.158;8.626;2022-12-10T10:30:42;4.80;99.90
16174;DHT22;14031;50.158;8.626;2022-12-10T10:33:11;4.70;99.90
16174;DHT22;14031;50.158;8.626;2022-12-10T10:35:44;4.80;99.90
16174;DHT22;14031;50.158;8.626;2022-12-10T10:38:17;4.80;99.90
16174;DHT22;14031;50.158;8.626;2022-12-10T10:40:49;4.80;99.90
16174;DHT22;14031;50.158;8.626;2022-12-10T10:43:20;4.80;99.90
16174;DHT22;14031;50.158;8.626;2022-12-10T10:45:54;4.70;99.90
16174;DHT22;14031;50.158;8.626;2022-12-10T10:48:25;4.70;99.90
16174;DHT22;14031;50.158;8.626;2022-12-10T10:50:54;4.80;99.90
16174;DHT22;14031;50.158;8.626;2022-12-10T10:53:29;4.80;99.90
16174;DHT22;14031;50.158;8.626;2022-12-10T10:56:04;4.90;99.90
16174;DHT22;14031;50.158;8.626;2022-12-10T10:58:32;5.00;99.90
16174;DHT22;14031;50.158;8.626;2022-12-10T11:01:02;5.10;99.90
16174;DHT22;14031;50.158;8.626;2022-12-10T11:03:31;5.10;99.90
16174;DHT22;14031;50.158;8.626;2022-12-10T11:05:59;5.20;99.90
16174;DHT22;14031;50.158;8.626;2022-12-10T11:08:29;5.00;99.90
16174;DHT22;14031;50.158;8.626;2022-12-10T11:10:59;4.90;99.90
16174;DHT22;14031;50.158;8.626;2022-12-10T11:13:30;4.90;99.90
16174;DHT22;14031;50.158;8.626;2022-12-10T11:16:02;4.90;99.90
16174;DHT22;14031;50.158;8.626;2022-12-10T11:18:37;4.80;99.90
16174;DHT22;14031;50.158;8.626;2022-12-10T11:21:06;4.80;99.90
16174;DHT22;14031;50.158;8.626;2022-12-10T11:23:38;4.70;99.90
16174;DHT22;14031;50.158;8.626;2022-12-10T11:26:30;4.60;99.90
16174;DHT22;14031;50.158;8.626;2022-12-10T11:29:08;4.60;99.90
16174;DHT22;14031;50.158;8.626;2022-12-10T11:31:56;4.60;99.90
16174;DHT22;14031;50.158;8.626;2022-12-10T11:34:35;4.60;99.90
16174;DHT22;14031;50.158;8.626;2022-12-10T11:37:12;4.70;99.90
16174;DHT22;14031;50.158;8.626;2022-12-10T11:40:02;4.70;99.90
16174;DHT22;14031;50.158;8.626;2022-12-10T11:42:45;4.70;99.90
16174;DHT22;14031;50.158;8.626;2022-12-10T11:45:19;4.90;99.90
16174;DHT22;14031;50.158;8.626;2022-12-10T11:48:00;4.70;99.90
16174;DHT22;14031;50.158;8.626;2022-12-10T11:50:38;4.80;99.90
16174;DHT22;14031;50.158;8.626;2022-12-10T11:53:30;4.80;99.90
16174;DHT22;14031;50.158;8.626;2022-12-10T11:56:08;4.80;99.90
16174;DHT22;14031;50.158;8.626;2022-12-10T11:58:49;4.80;99.90
16174;DHT22;14031;50.158;8.626;2022-12-10T12:01:29;4.90;99.90
16174;DHT22;14031;50.158;8.626;2022-12-10T12:04:22;4.90;99.90
16174;DHT22;14031;50.158;8.626;2022-12-10T12:09:50;5.00;99.90
16174;DHT22;14031;50.158;8.626;2022-12-10T12:12:26;5.00;99.90
16174;DHT22;14031;50.158;8.626;2022-12-10T12:15:00;4.90;99.90
16174;DHT22;14031;50.158;8.626;2022-12-10T12:17:32;4.90;99.90
16174;DHT22;14031;50.158;8.626;2022-12-10T12:20:05;4.80;99.90
16174;DHT22;14031;50.158;8.626;2022-12-10T12:22:43;4.90;99.90
16174;DHT22;14031;50.158;8.626;2022-12-10T12:25:20;4.80;99.90
16174;DHT22;14031;50.158;8.626;2022-12-10T12:27:51;4.80;99.90
16174;DHT22;14031;50.158;8.626;2022-12-10T12:30:21;4.90;99.90
16174;DHT22;14031;50.158;8.626;2022-12-10T12:32:54;4.90;99.90
16174;DHT22;14031;50.158;8.626;2022-12-10T12:35:32;4.90;99.90
16174;DHT22;14031;50.158;8.626;2022-12-10T12:38:03;4.80;99.90
16174;DHT22;14031;50.158;8.626;2022-12-10T12:40:35;4.80;99.90
16174;DHT22;14031;50.158;8.626;2022-12-10T12:43:10;4.90;99.90
16174;DHT22;14031;50.158;8.626;2022-12-10T12:45:41;5.00;99.90
16174;DHT22;14031;50.158;8.626;2022-12-10T12:48:18;5.00;99.90
16174;DHT22;14031;50.158;8.626;2022-12-10T12:50:53;5.00;99.90
16174;DHT22;14031;50.158;8.626;2022-12-10T12:53:22;5.00;99.90
16174;DHT22;14031;50.158;8.626;2022-12-10T12:55:56;5.00;99.90
16174;DHT22;14031;50.158;8.626;2022-12-10T12:58:34;5.00;99.90
16174;DHT22;14031;50.158;8.626;2022-12-10T13:01:11;4.90;99.90
16174;DHT22;14031;50.158;8.626;2022-12-10T13:03:41;5.10;99.90
16174;DHT22;14031;50.158;8.626;2022-12-10T13:06:19;5.10;99.90
16174;DHT22;14031;50.158;8.626;2022-12-10T13:08:49;5.10;99.90
16174;DHT22;14031;50.158;8.626;2022-12-10T13:11:28;5.10;99.90
16174;DHT22;14031;50.158;8.626;2022-12-10T13:17:00;5.00;99.90
16174;DHT22;14031;50.158;8.626;2022-12-10T13:19:30;4.90;99.90
16174;DHT22;14031;50.158;8.626;2022-12-10T13:22:05;4.90;99.90
16174;DHT22;14031;50.158;8.626;2022-12-10T13:25:05;4.90;99.90
16174;DHT22;14031;50.158;8.626;2022-12-10T13:27:34;4.90;99.90
16174;DHT22;14031;50.158;8.626;2022-12-10T13:30:14;5.00;99.90
16174;DHT22;14031;50.158;8.626;2022-12-10T13:32:53;4.90;99.90
16174;DHT22;14031;50.158;8.626;2022-12-10T13:35:31;4.80;99.90
16174;DHT22;14031;50.158;8.626;2022-12-10T13:38:15;4.80;99.90
16174;DHT22;14031;50.158;8.626;2022-12-10T13:40:57;4.70;99.90
16174;DHT22;14031;50.158;8.626;2022-12-10T13:43:52;4.70;99.90
16174;DHT22;14031;50.158;8.626;2022-12-10T13:46:58;4.70;99.90
16174;DHT22;14031;50.158;8.626;2022-12-10T13:49:27;4.70;99.90
16174;DHT22;14031;50.158;8.626;2022-12-10T13:51:58;4.70;99.90
16174;DHT22;14031;50.158;8.626;2022-12-10T13:57:46;4.50;99.90
16174;DHT22;14031;50.158;8.626;2022-12-10T14:00:16;4.50;99.90
16174;DHT22;14031;50.158;8.626;2022-12-10T14:03:17;4.60;99.90
16174;DHT22;14031;50.158;8.626;2022-12-10T14:06:03;4.60;99.90
16174;DHT22;14031;50.158;8.626;2022-12-10T14:08:35;4.60;99.90
16174;DHT22;14031;50.158;8.626;2022-12-10T14:11:06;4.50;99.90
16174;DHT22;14031;50.158;8.626;2022-12-10T14:13:38;4.60;99.90
16174;DHT22;14031;50.158;8.626;2022-12-10T14:16:10;4.40;99.90
16174;DHT22;14031;50.158;8.626;2022-12-10T14:18:38;4.30;99.90
16174;DHT22;14031;50.158;8.626;2022-12-10T14:21:08;4.30;99.90
16174;DHT22;14031;50.158;8.626;2022-12-10T14:23:44;4.20;99.90
16174;DHT22;14031;50.158;8.626;2022-12-10T14:26:13;4.20;99.90
16174;DHT22;14031;50.158;8.626;2022-12-10T14:28:44;4.10;99.90
16174;DHT22;14031;50.158;8.626;2022-12-10T14:31:15;4.20;99.90
16174;DHT22;14031;50.158;8.626;2022-12-10T14:33:44;4.10;99.90
16174;DHT22;14031;50.158;8.626;2022-12-10T14:36:16;4.20;99.90
16174;DHT22;14031;50.158;8.626;2022-12-10T14:38:45;4.20;99.90
16174;DHT22;14031;50.158;8.626;2022-12-10T14:41:17;4.20;99.90
16174;DHT22;14031;50.158;8.626;2022-12-10T14:43:46;4.20;99.90
16174;DHT22;14031;50.158;8.626;2022-12-10T14:46:16;4.20;99.90
16174;DHT22;14031;50.158;8.626;2022-12-10T14:48:43;4.20;99.90
16174;DHT22;14031;50.158;8.626;2022-12-10T14:51:14;4.10;99.90
16174;DHT22;14031;50.158;8.626;2022-12-10T14:53:41;4.10;99.90
16174;DHT22;14031;50.158;8.626;2022-12-10T14:56:13;4.10;99.90
16174;DHT22;14031;50.158;8.626;2022-12-10T14:58:43;4.00;99.90
16174;DHT22;14031;50.158;8.626;2022-12-10T15:01:16;4.00;99.90
16174;DHT22;14031;50.158;8.626;2022-12-10T15:03:45;3.90;99.90
16174;DHT22;14031;50.158;8.626;2022-12-10T15:06:16;3.90;99.90
16174;DHT22;14031;50.158;8.626;2022-12-10T15:08:45;4.00;99.90
16174;DHT22;14031;50.158;8.626;2022-12-10T15:11:17;3.70;99.90
16174;DHT22;14031;50.158;8.626;2022-12-10T15:13:46;3.70;99.90
16174;DHT22;14031;50.158;8.626;2022-12-10T15:16:18;3.70;99.90
16174;DHT22;14031;50.158;8.626;2022-12-10T15:18:45;3.70;99.90
16174;DHT22;14031;50.158;8.626;2022-12-10T15:21:14;3.70;99.90
16174;DHT22;14031;50.158;8.626;2022-12-10T15:23:43;3.70;99.90
16174;DHT22;14031;50.158;8.626;2022-12-10T15:26:18;3.60;99.90
16174;DHT22;14031;50.158;8.626;2022-12-10T15:28:46;3.60;99.90
16174;DHT22;14031;50.158;8.626;2022-12-10T15:31:20;3.50;99.90
16174;DHT22;14031;50.158;8.626;2022-12-10T15:33:48;3.60;99.90
16174;DHT22;14031;50.158;8.626;2022-12-10T15:36:25;3.60;99.90
16174;DHT22;14031;50.158;8.626;2022-12-10T15:38:52;3.50;99.90
16174;DHT22;14031;50.158;8.626;2022-12-10T15:41:24;3.50;99.90
16174;DHT22;14031;50.158;8.626;2022-12-10T15:44:00;3.30;99.90
16174;DHT22;14031;50.158;8.626;2022-12-10T15:46:28;3.40;99.90
16174;DHT22;14031;50.158;8.626;2022-12-10T15:48:55;3.30;99.90
16174;DHT22;14031;50.158;8.626;2022-12-10T15:51:22;3.30;99.90
16174;DHT22;14031;50.158;8.626;2022-12-10T15:53:49;3.30;99.90
16174;DHT22;14031;50.158;8.626;2022-12-10T15:56:16;3.30;99.90
16174;DHT22;14031;50.158;8.626;2022-12-10T15:58:43;3.30;99.90
16174;DHT22;14031;50.158;8.626;2022-12-10T16:01:12;3.20;99.90
16174;DHT22;14031;50.158;8.626;2022-12-10T16:03:42;3.40;99.90
16174;DHT22;14031;50.158;8.626;2022-12-10T16:06:09;3.20;99.90
16174;DHT22;14031;50.158;8.626;2022-12-10T16:08:36;3.30;99.90
16174;DHT22;14031;50.158;8.626;2022-12-10T16:11:11;3.20;99.90
16174;DHT22;14031;50.158;8.626;2022-12-10T16:13:39;3.20;99.90
16174;DHT22;14031;50.158;8.626;2022-12-10T16:16:10;3.10;99.90